Time;durP1;ratioP1;P1;durP2;ratioP2;P2;SDS_P1;SDS_P2;PMS_P1;PMS_P2;Temp;Humidity;BMP_temperature;BMP_pressure;BME280_temperature;BME280_humidity;BME280_pressure;Samples;Min_cycle;Max_cycle;Signal;HPM_P1;HPM_P2
2022/01/22 00:00:56;;;;;;;7.57;6.00;;;;;21.70;102041.00;;;;2067876;28;20222;-64
2022/01/22 00:01:56;;;;;;;7.00;5.33;;;;;21.70;102046.00;;;;2068952;28;20219;-63
2022/01/22 00:02:56;;;;;;;6.77;6.07;;;;;21.60;102034.00;;;;2069081;28;20736;-63
2022/01/22 00:03:57;;;;;;;6.90;5.93;;;;;21.70;102041.00;;;;2069026;28;20222;-63
2022/01/22 00:04:57;;;;;;;9.13;6.43;;;;;21.60;102038.00;;;;2068459;28;20215;-63
2022/01/22 00:05:57;;;;;;;6.70;5.83;;;;;21.60;102043.00;;;;2068060;28;20257;-63
2022/01/22 00:06:58;;;;;;;7.00;5.90;;;;;21.60;102040.00;;;;2068052;28;20218;-63
2022/01/22 00:07:59;;;;;;;7.03;5.70;;;;;21.60;102042.00;;;;2067869;28;20211;-63
2022/01/22 00:08:59;;;;;;;6.07;5.47;;;;;21.60;102041.00;;;;2067946;28;20454;-63
2022/01/22 00:10:04;;;;;;;6.13;5.37;;;;;21.60;102037.00;;;;2068779;28;20276;-63
2022/01/22 00:11:04;;;;;;;6.97;6.03;;;;;21.60;102036.00;;;;2068655;28;20211;-63
2022/01/22 00:12:07;;;;;;;8.80;6.27;;;;;21.60;102035.00;;;;2068723;28;20772;-64
2022/01/22 00:14:23;;;;;;;9.60;5.72;;;;;21.60;102037.00;;;;2064422;28;20229;-63
2022/01/22 00:14:28;;;;;;;7.65;5.80;;;;;21.60;102050.00;;;;2067474;28;20226;-63
2022/01/22 00:15:30;;;;;;;7.80;5.43;;;;;21.60;102037.00;;;;2068916;28;20651;-63
2022/01/22 00:16:30;;;;;;;8.63;5.50;;;;;21.60;102044.00;;;;2068873;28;20214;-63
2022/01/22 00:17:30;;;;;;;7.23;5.97;;;;;21.50;102042.00;;;;2068231;28;20271;-63
2022/01/22 00:18:31;;;;;;;9.63;5.70;;;;;21.60;102036.00;;;;2067593;28;20686;-63
2022/01/22 00:19:31;;;;;;;8.17;6.00;;;;;21.60;102042.00;;;;2067647;28;20678;-63
2022/01/22 00:20:31;;;;;;;10.67;6.10;;;;;21.60;102042.00;;;;2069801;28;20694;-64
2022/01/22 00:21:32;;;;;;;5.87;5.27;;;;;21.60;102048.00;;;;2068804;28;20210;-63
2022/01/22 00:22:35;;;;;;;6.80;5.53;;;;;21.60;102042.00;;;;2065143;28;20223;-63
2022/01/22 00:23:38;;;;;;;7.88;6.20;;;;;21.50;102040.00;;;;2068602;28;20238;-63
2022/01/22 00:24:40;;;;;;;8.45;5.68;;;;;21.50;102038.00;;;;2068795;28;20225;-63
2022/01/22 00:25:40;;;;;;;7.57;5.85;;;;;21.50;102047.00;;;;2068121;28;20214;-63
2022/01/22 00:26:41;;;;;;;7.37;5.63;;;;;21.50;102045.00;;;;2067657;28;20708;-63
2022/01/22 00:27:42;;;;;;;7.00;5.90;;;;;21.50;102048.00;;;;2067834;28;20701;-63
2022/01/22 00:28:43;;;;;;;10.32;5.72;;;;;21.50;102040.00;;;;2067620;28;20601;-62
2022/01/22 00:29:43;;;;;;;6.30;5.20;;;;;21.50;102049.00;;;;2066942;28;20269;-62
2022/01/22 00:30:43;;;;;;;6.80;5.30;;;;;21.50;102042.00;;;;2068579;28;20634;-62
2022/01/22 00:31:44;;;;;;;7.20;5.50;;;;;21.50;102043.00;;;;2068828;28;20586;-63
2022/01/22 00:32:44;;;;;;;6.93;5.30;;;;;21.50;102045.00;;;;2068835;28;20807;-63
2022/01/22 00:33:44;;;;;;;7.40;5.60;;;;;21.50;102050.00;;;;2068781;28;20276;-63
2022/01/22 00:34:45;;;;;;;6.13;4.77;;;;;21.50;102042.00;;;;2067697;28;20214;-63
2022/01/22 00:35:45;;;;;;;6.63;5.10;;;;;21.50;102046.00;;;;2067937;28;20265;-63
2022/01/22 00:36:45;;;;;;;6.70;5.30;;;;;21.50;102037.00;;;;2068003;28;20273;-63
2022/01/22 00:37:47;;;;;;;8.30;5.20;;;;;21.50;102055.00;;;;2067633;28;20219;-63
2022/01/22 00:38:47;;;;;;;6.97;5.30;;;;;21.40;102034.00;;;;2064227;28;20218;-63
2022/01/22 00:39:48;;;;;;;9.57;5.93;;;;;21.40;102030.00;;;;2067956;28;20766;-63
2022/01/22 00:40:51;;;;;;;7.03;5.37;;;;;21.40;102040.00;;;;2067287;28;20585;-63
2022/01/22 00:41:51;;;;;;;9.77;5.90;;;;;21.50;102027.00;;;;2067274;28;20230;-63
2022/01/22 00:42:52;;;;;;;6.93;5.60;;;;;21.50;102040.00;;;;2067944;28;20242;-63
2022/01/22 00:43:53;;;;;;;5.30;4.80;;;;;21.50;102036.00;;;;2068583;28;20698;-63
2022/01/22 00:44:54;;;;;;;5.97;4.82;;;;;21.50;102019.00;;;;2068619;28;20253;-63
2022/01/22 00:45:54;;;;;;;7.33;5.63;;;;;21.40;102033.00;;;;2068280;28;20273;-63
2022/01/22 00:46:54;;;;;;;5.47;4.40;;;;;21.40;102031.00;;;;2067465;28;20217;-63
2022/01/22 00:47:55;;;;;;;6.93;5.00;;;;;21.40;102027.00;;;;2067426;28;20210;-63
2022/01/22 00:48:55;;;;;;;6.27;5.00;;;;;21.40;102027.00;;;;2067818;28;20253;-64
2022/01/22 00:49:55;;;;;;;7.40;5.17;;;;;21.40;102030.00;;;;2067774;28;20771;-63
2022/01/22 00:50:57;;;;;;;7.23;5.00;;;;;21.40;102030.00;;;;2068014;28;20226;-63
2022/01/22 00:51:57;;;;;;;6.32;5.00;;;;;21.40;102030.00;;;;2068162;28;20246;-63
2022/01/22 00:52:57;;;;;;;5.10;4.60;;;;;21.40;102032.00;;;;2068067;28;20219;-63
2022/01/22 00:53:58;;;;;;;5.97;4.83;;;;;21.40;102031.00;;;;2068607;28;20210;-63
2022/01/22 00:54:58;;;;;;;4.80;4.37;;;;;21.40;102031.00;;;;2067870;28;20648;-63
2022/01/22 00:55:59;;;;;;;5.73;4.40;;;;;21.40;102028.00;;;;2067649;28;20203;-63
2022/01/22 00:56:59;;;;;;;6.90;4.80;;;;;21.40;102033.00;;;;2067420;28;20211;-63
2022/01/22 00:57:59;;;;;;;7.27;4.70;;;;;21.40;102029.00;;;;2067030;28;20261;-64
2022/01/22 00:59:00;;;;;;;6.70;5.00;;;;;21.40;102028.00;;;;2067254;28;20207;-63
2022/01/22 01:00:00;;;;;;;4.70;4.20;;;;;21.40;102029.00;;;;2062677;28;20596;-64
2022/01/22 01:01:00;;;;;;;7.23;4.50;;;;;21.40;102024.00;;;;2068300;28;20589;-63
2022/01/22 01:02:01;;;;;;;5.83;4.57;;;;;21.40;102025.00;;;;2063380;28;20230;-63
2022/01/22 01:03:01;;;;;;;6.03;4.63;;;;;21.40;102019.00;;;;2067529;28;20214;-63
2022/01/22 01:04:03;;;;;;;5.67;4.43;;;;;21.30;102020.00;;;;2066458;28;20744;-63
2022/01/22 01:05:04;;;;;;;5.75;4.50;;;;;21.40;102026.00;;;;2067173;28;20321;-63
2022/01/22 01:06:05;;;;;;;6.93;4.93;;;;;21.40;102027.00;;;;2067143;28;20750;-63
2022/01/22 01:07:05;;;;;;;6.17;4.37;;;;;21.40;102027.00;;;;2066616;28;20254;-63
2022/01/22 01:08:05;;;;;;;6.10;4.70;;;;;21.30;102035.00;;;;2058060;28;20212;-63
2022/01/22 01:09:08;;;;;;;4.40;4.00;;;;;21.30;102031.00;;;;2067376;28;20211;-64
2022/01/22 01:10:09;;;;;;;5.82;4.97;;;;;21.30;102035.00;;;;2068025;28;20214;-63
2022/01/22 01:11:12;;;;;;;6.65;4.38;;;;;21.30;102028.00;;;;2067399;28;20666;-63
2022/01/22 01:12:13;;;;;;;5.82;4.53;;;;;21.30;102039.00;;;;2067159;28;20230;-63
2022/01/22 01:13:14;;;;;;;5.10;4.47;;;;;21.30;102037.00;;;;2066742;28;20206;-64
2022/01/22 01:14:22;;;;;;;6.65;5.30;;;;;21.30;102035.00;;;;2067015;28;20223;-63
2022/01/22 01:15:38;;;;;;;5.13;4.43;;;;;21.30;102030.00;;;;2063806;28;20214;-63
2022/01/22 01:33:17;;;;;;;4.70;4.25;;;;;21.20;102039.00;;;;2066089;28;20670;-63
2022/01/22 01:34:21;;;;;;;4.80;4.22;;;;;21.20;102037.00;;;;2064371;28;20268;-63
2022/01/22 01:35:21;;;;;;;5.40;4.32;;;;;21.20;102031.00;;;;2067322;28;20206;-63
2022/01/22 01:36:22;;;;;;;5.97;4.33;;;;;21.20;102037.00;;;;2067373;28;20734;-63
2022/01/22 01:37:22;;;;;;;5.63;4.30;;;;;21.20;102028.00;;;;2068015;28;20211;-63
2022/01/22 01:38:24;;;;;;;6.33;4.90;;;;;21.20;102021.00;;;;2067675;28;20207;-62
2022/01/22 01:39:31;;;;;;;5.15;4.20;;;;;21.20;102039.00;;;;2068104;28;20209;-63
2022/01/22 01:40:34;;;;;;;7.13;4.60;;;;;21.20;102036.00;;;;2063758;28;20210;-63
2022/01/22 01:41:46;;;;;;;5.97;4.38;;;;;21.20;102036.00;;;;2067515;28;20711;-63
2022/01/22 01:43:05;;;;;;;5.20;3.83;;;;;21.20;102030.00;;;;2064007;28;20268;-63
2022/01/22 01:44:06;;;;;;;7.05;4.70;;;;;21.20;102028.00;;;;2067701;28;20298;-63
2022/01/22 01:45:07;;;;;;;6.03;4.67;;;;;21.20;102028.00;;;;2067880;28;20215;-63
2022/01/22 01:46:07;;;;;;;7.30;4.40;;;;;21.20;102025.00;;;;2067705;28;20366;-63
2022/01/22 01:47:09;;;;;;;5.43;4.50;;;;;21.20;102035.00;;;;2067882;28;20453;-63
2022/01/22 01:48:16;;;;;;;7.22;4.60;;;;;21.20;102030.00;;;;2066878;28;20601;-63
2022/01/22 01:49:17;;;;;;;5.45;4.50;;;;;21.10;102033.00;;;;2066574;28;20222;-63
2022/01/22 01:50:17;;;;;;;6.13;4.43;;;;;21.20;102028.00;;;;2067229;28;20924;-63
2022/01/22 01:51:18;;;;;;;4.53;3.90;;;;;21.20;102028.00;;;;2067774;28;20822;-63
2022/01/22 01:52:26;;;;;;;4.90;4.20;;;;;21.20;102041.00;;;;2067974;28;20219;-63
2022/01/22 01:55:12;;;;;;;4.90;4.40;;;;;21.20;102037.00;;;;2064205;28;20625;-63
2022/01/22 01:58:18;;;;;;;5.68;5.18;;;;;21.10;102033.00;;;;2064762;28;20666;-63
2022/01/22 01:59:18;;;;;;;5.43;4.60;;;;;21.10;102027.00;;;;2067290;28;20222;-63
2022/01/22 02:00:23;;;;;;;4.87;4.47;;;;;21.10;102029.00;;;;2066993;28;20226;-63
2022/01/22 02:01:24;;;;;;;7.85;5.00;;;;;21.10;102034.00;;;;2067035;28;20278;-63
2022/01/22 02:02:26;;;;;;;4.87;4.37;;;;;21.20;102027.00;;;;2067805;28;20214;-63
2022/01/22 02:03:26;;;;;;;5.00;4.50;;;;;21.10;102030.00;;;;2066389;28;20209;-62
2022/01/22 02:04:27;;;;;;;7.00;5.23;;;;;21.10;102036.00;;;;2067279;28;20630;-62
2022/01/22 02:05:27;;;;;;;5.53;5.03;;;;;21.10;102013.00;;;;2067157;28;20214;-63
2022/01/22 02:06:28;;;;;;;6.40;4.73;;;;;21.10;102030.00;;;;2067153;28;20482;-63
2022/01/22 02:07:28;;;;;;;5.70;5.10;;;;;21.10;102034.00;;;;2067433;28;20632;-63
2022/01/22 02:08:29;;;;;;;5.47;4.80;;;;;21.10;102035.00;;;;2067893;28;20585;-63
2022/01/22 02:09:29;;;;;;;6.37;5.00;;;;;21.10;102029.00;;;;2067413;28;20617;-63
2022/01/22 02:10:33;;;;;;;6.53;5.00;;;;;21.10;102033.00;;;;2059217;28;20581;-63
2022/01/22 02:11:37;;;;;;;5.40;4.60;;;;;21.10;102032.00;;;;2066746;28;20210;-63
2022/01/22 02:13:26;;;;;;;5.57;5.03;;;;;21.10;102038.00;;;;2066470;28;20978;-63
2022/01/22 02:23:30;;;;;;;7.65;5.57;;;;;21.10;102036.00;;;;2058015;28;20215;-63
2022/01/22 02:23:43;;;;;;;6.88;5.53;;;;;21.00;102031.00;;;;2063067;28;20694;-63
2022/01/22 02:24:43;;;;;;;5.68;5.07;;;;;21.00;102035.00;;;;2062514;28;20307;-63
2022/01/22 02:25:44;;;;;;;6.23;5.30;;;;;21.00;102033.00;;;;2066289;28;20213;-63
2022/01/22 02:26:46;;;;;;;6.77;5.60;;;;;21.00;102025.00;;;;2066727;28;20212;-63
2022/01/22 02:27:46;;;;;;;6.22;4.90;;;;;21.00;102031.00;;;;2067166;28;20219;-63
2022/01/22 02:28:51;;;;;;;5.90;5.33;;;;;21.10;102032.00;;;;2067345;28;20219;-63
2022/01/22 02:29:51;;;;;;;5.65;5.07;;;;;21.00;102028.00;;;;2067794;28;20276;-63
2022/01/22 02:30:59;;;;;;;5.67;5.13;;;;;21.00;102024.00;;;;2067686;28;20622;-63
2022/01/22 02:32:30;;;;;;;5.95;5.35;;;;;21.00;102036.00;;;;2064505;28;20210;-64
2022/01/22 02:33:39;;;;;;;7.15;5.60;;;;;21.00;102027.00;;;;2064657;28;20666;-63
2022/01/22 02:34:50;;;;;;;6.50;5.93;;;;;21.00;102024.00;;;;2064063;28;20747;-63
2022/01/22 02:35:58;;;;;;;6.15;5.28;;;;;21.00;102018.00;;;;2067177;28;25490;-63
2022/01/22 02:37:06;;;;;;;5.88;5.38;;;;;21.00;102033.00;;;;2067169;28;20214;-63
2022/01/22 02:38:14;;;;;;;6.50;5.88;;;;;21.00;102026.00;;;;2066866;28;20293;-63
2022/01/22 02:39:21;;;;;;;7.05;6.05;;;;;21.00;102025.00;;;;2067160;28;20225;-63
2022/01/22 02:40:26;;;;;;;6.10;5.50;;;;;21.00;102026.00;;;;2067020;28;20218;-63
2022/01/22 02:41:27;;;;;;;6.20;5.57;;;;;21.00;102029.00;;;;2067857;28;20595;-63
2022/01/22 02:42:31;;;;;;;5.90;5.30;;;;;21.00;102019.00;;;;2067928;28;20217;-64
2022/01/22 02:43:32;;;;;;;5.78;5.28;;;;;21.00;102020.00;;;;2066914;28;20237;-62
2022/01/22 02:44:34;;;;;;;6.78;4.97;;;;;21.00;102022.00;;;;2058250;28;20215;-63
2022/01/22 02:45:34;;;;;;;7.57;5.75;;;;;21.00;102015.00;;;;2068835;28;20218;-63
2022/01/22 02:46:38;;;;;;;6.30;5.70;;;;;21.00;102013.00;;;;2067824;28;20245;-63
2022/01/22 02:47:38;;;;;;;6.40;5.75;;;;;21.00;102016.00;;;;2063500;28;20280;-63
2022/01/22 02:48:38;;;;;;;7.03;5.83;;;;;21.00;102019.00;;;;2066878;28;20206;-63
2022/01/22 02:49:39;;;;;;;7.67;5.83;;;;;20.90;102021.00;;;;2067124;28;20202;-63
2022/01/22 02:50:39;;;;;;;6.13;5.53;;;;;20.90;102023.00;;;;2066686;28;20301;-63
2022/01/22 02:51:39;;;;;;;6.10;5.60;;;;;21.00;102016.00;;;;2067062;28;20214;-63
2022/01/22 02:52:40;;;;;;;5.57;5.10;;;;;21.00;102015.00;;;;2067036;28;20219;-63
2022/01/22 02:53:40;;;;;;;6.40;5.80;;;;;21.00;102012.00;;;;2067379;28;20591;-63
2022/01/22 02:54:40;;;;;;;6.53;5.93;;;;;21.00;102028.00;;;;2067565;28;20682;-63
2022/01/22 02:55:42;;;;;;;8.57;6.87;;;;;20.90;102023.00;;;;2067271;28;20740;-63
2022/01/22 02:56:42;;;;;;;6.90;6.20;;;;;21.00;102017.00;;;;2064392;28;20748;-63
2022/01/22 02:57:44;;;;;;;6.40;5.50;;;;;21.00;102020.00;;;;2065908;28;20292;-63
2022/01/22 02:58:44;;;;;;;6.65;6.10;;;;;21.00;102015.00;;;;2069815;28;20218;-63
2022/01/22 02:59:44;;;;;;;5.70;5.20;;;;;21.00;102013.00;;;;2069630;28;20293;-63
2022/01/22 03:00:45;;;;;;;6.50;6.00;;;;;20.90;102015.00;;;;2061424;28;20210;-63
2022/01/22 03:01:45;;;;;;;7.33;6.70;;;;;20.90;102022.00;;;;2066385;28;20221;-63
2022/01/22 03:02:48;;;;;;;7.03;6.33;;;;;20.90;102023.00;;;;2064593;28;20276;-63
2022/01/22 03:03:48;;;;;;;6.35;5.85;;;;;20.90;102029.00;;;;2066235;28;20223;-63
2022/01/22 03:04:48;;;;;;;6.93;5.90;;;;;20.90;102007.00;;;;2066625;28;20219;-63
2022/01/22 03:05:49;;;;;;;7.47;6.53;;;;;20.90;102029.00;;;;2064563;28;20214;-63
2022/01/22 03:06:49;;;;;;;6.53;6.03;;;;;20.90;102034.00;;;;2067344;28;20214;-63
2022/01/22 03:07:53;;;;;;;6.80;6.20;;;;;20.90;102028.00;;;;2067194;28;20218;-63
2022/01/22 03:08:53;;;;;;;7.18;6.57;;;;;20.90;102036.00;;;;2066519;28;20301;-63
2022/01/22 03:10:00;;;;;;;8.30;6.93;;;;;20.90;102027.00;;;;2066443;28;20218;-63
2022/01/22 03:11:05;;;;;;;7.22;6.28;;;;;20.90;102035.00;;;;2064396;28;20253;-63
2022/01/22 03:15:37;;;;;;;6.78;6.10;;;;;20.90;102020.00;;;;2068293;28;20573;-63
2022/01/22 03:16:55;;;;;;;6.18;5.57;;;;;20.90;102031.00;;;;2065769;28;20214;-62
2022/01/22 03:18:08;;;;;;;7.10;6.40;;;;;20.90;102025.00;;;;2068270;28;20245;-63
2022/01/22 03:19:16;;;;;;;7.13;6.53;;;;;20.80;102024.00;;;;2068284;28;20217;-61
2022/01/22 03:22:31;;;;;;;6.63;6.03;;;;;20.90;102018.00;;;;2065032;28;20269;-62
2022/01/22 03:27:30;;;;;;;6.82;6.22;;;;;20.80;102023.00;;;;2065696;28;20214;-62
2022/01/22 03:28:40;;;;;;;7.03;6.43;;;;;20.80;102023.00;;;;2070657;28;20237;-63
2022/01/22 03:29:41;;;;;;;7.35;6.65;;;;;20.80;102024.00;;;;2064683;28;20237;-62
2022/01/22 03:30:41;;;;;;;7.75;7.05;;;;;20.80;102026.00;;;;2065237;28;20227;-62
2022/01/22 03:31:42;;;;;;;6.80;6.20;;;;;20.80;102031.00;;;;2067709;28;20222;-62
2022/01/22 03:32:47;;;;;;;7.93;6.90;;;;;20.80;102031.00;;;;2068527;28;20219;-63
2022/01/22 03:33:47;;;;;;;7.93;7.22;;;;;20.80;102034.00;;;;2068861;28;20462;-63
2022/01/22 03:35:00;;;;;;;6.73;6.10;;;;;20.90;102036.00;;;;2069035;28;20218;-63
2022/01/22 03:36:05;;;;;;;6.80;6.30;;;;;20.80;102025.00;;;;2063411;28;20280;-63
2022/01/22 03:37:06;;;;;;;6.45;5.90;;;;;20.80;102020.00;;;;2067926;28;20222;-62
2022/01/22 03:38:06;;;;;;;7.27;6.67;;;;;20.80;102030.00;;;;2068785;28;20218;-63
2022/01/22 03:39:07;;;;;;;8.33;6.10;;;;;20.80;102028.00;;;;2068651;28;20858;-63
2022/01/22 03:40:12;;;;;;;6.50;5.85;;;;;20.80;102029.00;;;;2068692;28;20231;-63
2022/01/22 03:41:13;;;;;;;6.82;6.22;;;;;20.80;102024.00;;;;2066775;28;20622;-63
2022/01/22 03:42:13;;;;;;;7.70;7.00;;;;;20.80;102041.00;;;;2067064;28;20238;-62
2022/01/22 03:43:13;;;;;;;7.80;7.10;;;;;20.80;102035.00;;;;2067631;28;20332;-62
2022/01/22 03:44:14;;;;;;;8.40;7.60;;;;;20.80;102034.00;;;;2067799;28;20221;-62
2022/01/22 03:45:14;;;;;;;7.03;6.43;;;;;20.80;102039.00;;;;2065040;28;20219;-62
2022/01/22 03:46:14;;;;;;;8.03;7.27;;;;;20.80;102040.00;;;;2059601;28;20711;-62
2022/01/22 03:47:15;;;;;;;6.80;6.20;;;;;20.80;102038.00;;;;2059830;28;20219;-62
2022/01/22 03:48:15;;;;;;;7.60;6.80;;;;;20.80;102031.00;;;;2068337;28;20284;-62
2022/01/22 03:49:16;;;;;;;7.10;6.50;;;;;20.80;102042.00;;;;2068391;28;20290;-62
2022/01/22 03:50:18;;;;;;;7.90;7.20;;;;;20.60;102039.00;;;;2064506;28;20221;-62
2022/01/22 03:51:18;;;;;;;7.45;6.72;;;;;20.80;102038.00;;;;2069689;28;20654;-62
2022/01/22 03:52:18;;;;;;;8.97;7.10;;;;;20.80;102033.00;;;;2069140;28;20218;-63
2022/01/22 03:53:19;;;;;;;7.20;6.60;;;;;20.80;102038.00;;;;2067523;28;20288;-61
2022/01/22 03:54:19;;;;;;;7.23;6.60;;;;;20.80;102040.00;;;;2067971;28;20246;-62
2022/01/22 03:55:33;;;;;;;6.83;6.33;;;;;20.80;102031.00;;;;2068112;28;20269;-62
2022/01/22 03:56:34;;;;;;;7.35;6.75;;;;;20.80;102038.00;;;;2064125;28;20577;-63
2022/01/22 03:57:34;;;;;;;7.53;6.87;;;;;20.80;102039.00;;;;2067553;28;20301;-62
2022/01/22 03:58:45;;;;;;;7.80;7.10;;;;;20.70;102037.00;;;;2067683;28;20233;-63
2022/01/22 03:59:46;;;;;;;8.25;7.55;;;;;20.70;102037.00;;;;2065010;28;20222;-62
2022/01/22 04:00:49;;;;;;;6.88;6.18;;;;;20.70;102038.00;;;;2068305;28;20214;-62
2022/01/22 04:03:25;;;;;;;7.95;7.32;;;;;20.80;102041.00;;;;2064121;28;20229;-63
2022/01/22 04:04:20;;;;;;;7.43;6.82;;;;;20.80;102037.00;;;;2064578;28;20210;-63
2022/01/22 04:05:22;;;;;;;7.00;6.40;;;;;20.70;102036.00;;;;2065428;28;20214;-62
2022/01/22 04:08:08;;;;;;;7.25;6.65;;;;;20.80;102036.00;;;;2068830;28;20226;-62
2022/01/22 04:09:11;;;;;;;7.35;6.65;;;;;20.70;102038.00;;;;2063779;28;20297;-63
2022/01/22 04:10:13;;;;;;;7.57;6.88;;;;;20.70;102038.00;;;;2067779;28;20214;-63
2022/01/22 04:11:15;;;;;;;7.15;6.43;;;;;20.70;102043.00;;;;2067129;28;20218;-63
2022/01/22 04:12:19;;;;;;;7.30;6.70;;;;;20.70;102042.00;;;;2067641;28;20226;-63
2022/01/22 04:13:25;;;;;;;7.65;6.95;;;;;20.70;102038.00;;;;2068700;28;20217;-62
2022/01/22 04:14:30;;;;;;;7.13;6.53;;;;;20.70;102046.00;;;;2068148;28;20583;-62
2022/01/22 04:15:34;;;;;;;7.65;7.00;;;;;20.70;102046.00;;;;2055892;28;20218;-62
2022/01/22 04:16:37;;;;;;;8.73;8.05;;;;;20.70;102042.00;;;;2067402;28;20210;-62
2022/01/22 04:25:18;;;;;;;7.13;6.57;;;;;20.70;102045.00;;;;2065908;28;20309;-63
2022/01/22 04:26:30;;;;;;;8.23;7.53;;;;;20.70;102040.00;;;;2060239;28;20226;-62
2022/01/22 04:27:31;;;;;;;7.70;7.10;;;;;20.70;102038.00;;;;2067370;28;20265;-62
2022/01/22 04:28:31;;;;;;;8.17;7.47;;;;;20.70;102045.00;;;;2067740;28;20230;-62
2022/01/22 04:29:31;;;;;;;7.90;7.20;;;;;20.70;102042.00;;;;2067492;28;20242;-62
2022/01/22 04:30:32;;;;;;;7.40;6.83;;;;;20.70;102033.00;;;;2067105;28;20209;-62
2022/01/22 04:31:32;;;;;;;8.00;7.30;;;;;20.60;102041.00;;;;2067892;28;20206;-62
2022/01/22 04:32:32;;;;;;;7.43;6.83;;;;;20.70;102041.00;;;;2067508;28;20214;-62
2022/01/22 04:33:33;;;;;;;8.00;7.40;;;;;20.60;102037.00;;;;2066537;28;20210;-62
2022/01/22 04:34:33;;;;;;;7.27;6.70;;;;;20.70;102033.00;;;;2066487;28;20237;-62
2022/01/22 04:35:33;;;;;;;7.47;6.87;;;;;20.70;102039.00;;;;2066636;28;20207;-62
2022/01/22 04:36:34;;;;;;;7.57;6.97;;;;;20.70;102033.00;;;;2067278;28;20218;-63
2022/01/22 04:37:34;;;;;;;7.17;6.57;;;;;20.60;102038.00;;;;2067345;28;20238;-62
2022/01/22 04:38:35;;;;;;;6.93;6.40;;;;;20.60;102035.00;;;;2059402;28;20798;-62
2022/01/22 04:39:36;;;;;;;8.33;7.53;;;;;20.60;102036.00;;;;2059172;28;20321;-63
2022/01/22 04:40:36;;;;;;;7.65;7.05;;;;;20.60;102026.00;;;;2068220;28;20289;-62
2022/01/22 04:41:37;;;;;;;7.50;6.90;;;;;20.60;102038.00;;;;2067924;28;20260;-62
2022/01/22 04:42:39;;;;;;;7.60;6.90;;;;;20.60;102040.00;;;;2067705;28;20214;-63
2022/01/22 04:43:41;;;;;;;7.53;6.93;;;;;20.60;102043.00;;;;2067672;28;20226;-62
2022/01/22 04:44:52;;;;;;;7.45;6.85;;;;;20.60;102033.00;;;;2067972;28;20207;-63
2022/01/22 04:46:07;;;;;;;7.45;6.85;;;;;20.70;102046.00;;;;2068116;28;20572;-63
2022/01/22 04:48:26;;;;;;;6.63;6.10;;;;;20.60;102042.00;;;;2067336;28;20214;-62
2022/01/22 04:55:29;;;;;;;7.47;6.88;;;;;20.60;102042.00;;;;2067570;28;20210;-63
2022/01/22 04:56:32;;;;;;;7.60;7.00;;;;;20.60;102048.00;;;;2067040;28;20301;-63
2022/01/22 04:57:39;;;;;;;7.15;6.47;;;;;20.60;102050.00;;;;2067194;28;20289;-63
2022/01/22 04:58:39;;;;;;;7.60;7.00;;;;;20.60;102041.00;;;;2067372;28;20219;-62
2022/01/22 04:59:40;;;;;;;7.53;6.93;;;;;20.60;102048.00;;;;2067999;28;20297;-63
2022/01/22 05:00:42;;;;;;;6.90;6.33;;;;;20.60;102044.00;;;;2067649;28;20211;-62
2022/01/22 05:01:42;;;;;;;7.47;6.93;;;;;20.60;102049.00;;;;2067375;28;20210;-63
2022/01/22 05:02:42;;;;;;;7.00;6.47;;;;;20.60;102049.00;;;;2067047;28;20218;-63
2022/01/22 05:03:43;;;;;;;7.37;6.80;;;;;20.60;102051.00;;;;2067008;28;20221;-63
2022/01/22 05:04:43;;;;;;;7.33;6.73;;;;;20.60;102043.00;;;;2065731;28;20242;-63
2022/01/22 05:05:44;;;;;;;7.07;6.50;;;;;20.60;102044.00;;;;2068148;28;20297;-62
2022/01/22 05:06:44;;;;;;;7.80;7.20;;;;;20.60;102038.00;;;;2068147;28;20214;-63
2022/01/22 05:07:44;;;;;;;7.00;6.40;;;;;20.60;102036.00;;;;2066908;28;20257;-63
2022/01/22 05:08:45;;;;;;;7.00;6.40;;;;;20.60;102038.00;;;;2067505;28;20723;-63
2022/01/22 05:09:45;;;;;;;7.70;7.10;;;;;20.60;102043.00;;;;2067543;28;20586;-63
2022/01/22 05:10:45;;;;;;;7.27;6.67;;;;;20.60;102045.00;;;;2064778;28;20265;-63
2022/01/22 05:11:46;;;;;;;7.40;6.80;;;;;20.50;102040.00;;;;2067603;28;20223;-63
2022/01/22 05:12:46;;;;;;;7.67;7.07;;;;;20.60;102036.00;;;;2067445;28;20726;-63
2022/01/22 05:13:47;;;;;;;7.63;7.03;;;;;20.60;102041.00;;;;2059170;28;20223;-63
2022/01/22 05:14:47;;;;;;;7.60;7.00;;;;;20.60;102043.00;;;;2067236;28;20218;-63
2022/01/22 05:15:47;;;;;;;8.03;7.33;;;;;20.50;102044.00;;;;2065512;28;20214;-63
2022/01/22 05:16:48;;;;;;;7.87;7.27;;;;;20.60;102046.00;;;;2067010;28;20226;-62
2022/01/22 05:17:48;;;;;;;6.83;6.33;;;;;20.60;102050.00;;;;2066677;28;20225;-62
2022/01/22 05:18:58;;;;;;;8.13;7.33;;;;;20.60;102042.00;;;;2067209;28;20246;-63
2022/01/22 05:20:16;;;;;;;8.05;7.45;;;;;20.50;102046.00;;;;2063784;28;20218;-63
2022/01/22 05:21:17;;;;;;;7.07;6.57;;;;;20.60;102046.00;;;;2060680;28;20210;-63
2022/01/22 05:23:34;;;;;;;7.53;6.93;;;;;20.50;102043.00;;;;2063552;28;20240;-63
2022/01/22 05:24:39;;;;;;;7.85;7.15;;;;;20.50;102047.00;;;;2066939;28;20221;-62
2022/01/22 05:25:54;;;;;;;7.82;7.22;;;;;20.50;102049.00;;;;2070559;28;20218;-62
2022/01/22 05:29:24;;;;;;;7.88;7.28;;;;;20.50;102044.00;;;;2066439;28;20745;-62
2022/01/22 05:36:56;;;;;;;8.05;7.35;;;;;20.50;102044.00;;;;2067037;28;20397;-63
2022/01/22 05:37:00;;;;;;;7.05;6.55;;;;;20.50;102035.00;;;;2066355;28;20245;-62
2022/01/22 05:38:01;;;;;;;8.73;8.05;;;;;20.50;102045.00;;;;2067486;28;20215;-62
2022/01/22 05:39:09;;;;;;;7.78;7.18;;;;;20.50;102047.00;;;;2067236;28;20226;-62
2022/01/22 05:40:10;;;;;;;8.02;7.38;;;;;20.50;102044.00;;;;2066676;28;20289;-63
2022/01/22 05:41:10;;;;;;;7.70;7.00;;;;;20.50;102052.00;;;;2064415;28;20233;-62
2022/01/22 05:42:11;;;;;;;7.40;6.80;;;;;20.50;102041.00;;;;2066655;28;20221;-62
2022/01/22 05:43:11;;;;;;;7.30;6.73;;;;;20.50;102046.00;;;;2066271;28;20223;-62
2022/01/22 05:44:12;;;;;;;7.43;6.73;;;;;20.50;102054.00;;;;2066801;28;20221;-62
2022/01/22 05:45:12;;;;;;;7.90;7.20;;;;;20.50;102051.00;;;;2067644;28;20218;-63
2022/01/22 05:46:12;;;;;;;8.50;7.80;;;;;20.50;102053.00;;;;2067581;28;20442;-62
2022/01/22 05:47:19;;;;;;;7.03;6.53;;;;;20.50;102050.00;;;;2067447;28;20229;-62
2022/01/22 05:48:20;;;;;;;7.80;7.18;;;;;20.50;102047.00;;;;2063559;28;20240;-63
2022/01/22 05:49:21;;;;;;;8.00;7.13;;;;;20.50;102040.00;;;;2066672;28;20302;-63
2022/01/22 05:50:59;;;;;;;7.70;6.82;;;;;20.50;102048.00;;;;2067110;28;20257;-63
2022/01/22 05:51:51;;;;;;;7.78;7.07;;;;;20.40;102048.00;;;;2064501;28;20258;-63
2022/01/22 05:52:58;;;;;;;8.27;7.50;;;;;20.50;102045.00;;;;2067720;28;20691;-63
2022/01/22 05:59:44;;;;;;;7.90;7.10;;;;;20.50;102053.00;;;;2063476;28;20225;-62
2022/01/22 06:00:44;;;;;;;7.97;7.17;;;;;20.50;102061.00;;;;2064013;28;20210;-62
2022/01/22 06:01:44;;;;;;;8.70;7.80;;;;;20.50;102056.00;;;;2066382;28;20215;-62
2022/01/22 06:02:45;;;;;;;8.10;7.40;;;;;20.50;102059.00;;;;2068060;28;20207;-63
2022/01/22 06:03:46;;;;;;;8.60;7.70;;;;;20.50;102062.00;;;;2068038;28;20239;-63
2022/01/22 06:04:47;;;;;;;8.75;7.85;;;;;20.50;102057.00;;;;2067986;28;20222;-62
2022/01/22 06:05:47;;;;;;;7.83;7.13;;;;;20.40;102059.00;;;;2067156;28;20269;-63
2022/01/22 06:06:48;;;;;;;7.50;6.90;;;;;20.50;102061.00;;;;2066891;28;20218;-63
2022/01/22 06:07:48;;;;;;;7.47;6.77;;;;;20.50;102068.00;;;;2066629;28;20222;-63
2022/01/22 06:08:53;;;;;;;6.50;6.00;;;;;20.50;102069.00;;;;2066986;28;20246;-63
2022/01/22 06:11:07;;;;;;;6.60;6.07;;;;;20.60;102068.00;;;;2065130;28;20273;-63
2022/01/22 06:13:14;;;;;;;6.90;6.30;;;;;20.60;102079.00;;;;2067485;28;20581;-63
2022/01/22 06:14:14;;;;;;;6.53;5.93;;;;;20.60;102063.00;;;;2067421;28;20214;-62
2022/01/22 06:15:15;;;;;;;6.00;5.50;;;;;20.60;102077.00;;;;2067614;28;20690;-62
2022/01/22 06:16:24;;;;;;;6.13;5.60;;;;;20.60;102078.00;;;;2064367;28;20705;-63
2022/01/22 06:17:25;;;;;;;5.50;5.07;;;;;20.60;102058.00;;;;2067117;28;20310;-63
2022/01/22 06:18:25;;;;;;;6.10;5.50;;;;;20.60;102069.00;;;;2067049;28;20207;-63
2022/01/22 06:19:25;;;;;;;6.63;5.87;;;;;20.60;102071.00;;;;2067934;28;20246;-63
2022/01/22 06:20:26;;;;;;;5.50;5.00;;;;;20.60;102074.00;;;;2067517;28;20222;-63
2022/01/22 06:21:26;;;;;;;6.07;5.50;;;;;20.60;102081.00;;;;2065096;28;20580;-63
2022/01/22 06:22:26;;;;;;;6.10;5.60;;;;;20.60;102078.00;;;;2067300;28;20578;-63
2022/01/22 06:23:26;;;;;;;5.47;5.07;;;;;20.60;102076.00;;;;2066635;28;20801;-62